Time;durP1;ratioP1;P1;durP2;ratioP2;P2;SDS_P1;SDS_P2;PMS_P1;PMS_P2;Temp;Humidity;BMP_temperature;BMP_pressure;BME280_temperature;BME280_humidity;BME280_pressure;Samples;Min_cycle;Max_cycle;Signal;HPM_P1;HPM_P2
2023/04/25 00:00:47;;;;;;;17.15;3.65;;;;;;;;;;4971735;28;20510;-59
2023/04/25 00:03:13;;;;;;;16.83;2.95;;;;;;;;;;4982610;28;20046;-59
2023/04/25 00:05:39;;;;;;;14.40;2.83;;;;;;;;;;4975130;28;20046;-59
2023/04/25 00:08:06;;;;;;;18.27;3.17;;;;;;;;;;4981842;28;20086;-60
2023/04/25 00:10:32;;;;;;;20.13;3.50;;;;;;;;;;4979856;28;20501;-59
2023/04/25 00:12:58;;;;;;;16.73;4.03;;;;;;;;;;4974094;28;20043;-62
2023/04/25 00:15:24;;;;;;;21.85;3.70;;;;;;;;;;4982605;28;20046;-59
2023/04/25 00:17:52;;;;;;;11.05;2.78;;;;;;;;;;4958083;28;20070;-60
2023/04/25 00:20:18;;;;;;;18.73;4.00;;;;;;;;;;4978243;28;20062;-60
2023/04/25 00:22:45;;;;;;;11.32;2.47;;;;;;;;;;4982271;28;20074;-59
2023/04/25 00:25:11;;;;;;;18.80;3.03;;;;;;;;;;4974351;28;20418;-59
2023/04/25 00:27:38;;;;;;;17.13;3.28;;;;;;;;;;4978261;28;20046;-59
2023/04/25 00:30:05;;;;;;;18.27;3.10;;;;;;;;;;4978712;28;20048;-59
2023/04/25 00:32:31;;;;;;;24.33;3.33;;;;;;;;;;4981777;28;20043;-59
2023/04/25 00:34:57;;;;;;;12.20;2.50;;;;;;;;;;4982652;28;20042;-59
2023/04/25 00:37:24;;;;;;;22.00;4.22;;;;;;;;;;4981099;28;20122;-59
2023/04/25 00:39:50;;;;;;;20.23;3.95;;;;;;;;;;4982455;28;20097;-59
2023/04/25 00:42:17;;;;;;;11.30;2.72;;;;;;;;;;4982727;28;20034;-59
2023/04/25 00:44:43;;;;;;;19.17;3.40;;;;;;;;;;4980423;28;20455;-59
2023/04/25 00:47:11;;;;;;;15.90;3.08;;;;;;;;;;4975673;28;20559;-59
2023/04/25 00:49:37;;;;;;;15.80;4.43;;;;;;;;;;4976882;28;20057;-59
2023/04/25 00:52:03;;;;;;;17.30;3.92;;;;;;;;;;4974821;28;20685;-59
2023/04/25 00:54:30;;;;;;;19.33;3.05;;;;;;;;;;4985900;28;20603;-60
2023/04/25 00:56:56;;;;;;;16.17;3.05;;;;;;;;;;4986144;28;20713;-59
2023/04/25 00:59:22;;;;;;;16.33;3.10;;;;;;;;;;4978420;28;20053;-59
2023/04/25 01:01:49;;;;;;;23.85;4.53;;;;;;;;;;4985470;28;20046;-60
2023/04/25 01:04:15;;;;;;;10.63;2.55;;;;;;;;;;4982777;28;20055;-59
2023/04/25 01:06:41;;;;;;;19.13;3.40;;;;;;;;;;4979722;28;20644;-59
2023/04/25 01:09:07;;;;;;;10.65;2.50;;;;;;;;;;4985722;28;20077;-58
2023/04/25 01:11:33;;;;;;;9.90;2.85;;;;;;;;;;4978153;28;20129;-59
2023/04/25 01:14:00;;;;;;;19.73;2.75;;;;;;;;;;4984465;28;20477;-59
2023/04/25 01:16:26;;;;;;;14.68;2.58;;;;;;;;;;4985973;28;20045;-59
2023/04/25 01:18:52;;;;;;;12.80;3.17;;;;;;;;;;4977470;28;20081;-58
2023/04/25 01:21:19;;;;;;;20.88;3.88;;;;;;;;;;4984634;28;20038;-59
2023/04/25 01:23:45;;;;;;;13.15;2.50;;;;;;;;;;4985852;28;20125;-59
2023/04/25 01:26:12;;;;;;;19.67;3.03;;;;;;;;;;4974491;28;20050;-58
2023/04/25 01:28:40;;;;;;;15.77;3.38;;;;;;;;;;4984918;28;20132;-59
2023/04/25 01:31:07;;;;;;;13.65;3.05;;;;;;;;;;4981448;28;20138;-58
2023/04/25 01:33:33;;;;;;;14.52;3.05;;;;;;;;;;4979640;28;20042;-58
2023/04/25 01:35:59;;;;;;;18.70;2.42;;;;;;;;;;4985150;28;20055;-58
2023/04/25 01:38:26;;;;;;;18.90;3.05;;;;;;;;;;4976406;28;20670;-59
2023/04/25 01:40:52;;;;;;;12.95;2.50;;;;;;;;;;4981542;28;20073;-59
2023/04/25 01:43:18;;;;;;;20.27;3.22;;;;;;;;;;4983254;28;20073;-60
2023/04/25 01:45:44;;;;;;;16.80;2.92;;;;;;;;;;4984881;28;20042;-59
2023/04/25 01:48:13;;;;;;;16.42;3.33;;;;;;;;;;4974755;28;20039;-59
2023/04/25 01:50:39;;;;;;;23.00;4.57;;;;;;;;;;4963600;28;20093;-59
2023/04/25 01:53:06;;;;;;;19.52;2.97;;;;;;;;;;4983149;28;20034;-59
2023/04/25 01:55:32;;;;;;;17.50;3.05;;;;;;;;;;4984857;28;20042;-59
2023/04/25 01:57:59;;;;;;;18.95;3.47;;;;;;;;;;4980857;28;20151;-62
2023/04/25 02:00:26;;;;;;;12.27;3.20;;;;;;;;;;4967309;28;20556;-59
2023/04/25 02:02:53;;;;;;;19.77;2.80;;;;;;;;;;4981153;28;20030;-59
2023/04/25 02:05:20;;;;;;;18.13;2.55;;;;;;;;;;4978307;28;20064;-59
2023/04/25 02:07:46;;;;;;;14.48;2.50;;;;;;;;;;4983844;28;20045;-59
2023/04/25 02:10:13;;;;;;;15.55;2.25;;;;;;;;;;4984513;28;20086;-59
2023/04/25 02:12:39;;;;;;;10.70;1.92;;;;;;;;;;4977466;28;20498;-59
2023/04/25 02:15:05;;;;;;;28.50;3.65;;;;;;;;;;4984443;28;20045;-59
2023/04/25 02:17:32;;;;;;;9.35;2.25;;;;;;;;;;4973454;28;20510;-59
2023/04/25 02:19:58;;;;;;;11.68;2.35;;;;;;;;;;4977081;28;20448;-60
2023/04/25 02:22:24;;;;;;;19.08;2.10;;;;;;;;;;4984242;28;20042;-59
2023/04/25 02:24:50;;;;;;;17.10;2.53;;;;;;;;;;4979506;28;20050;-59
2023/04/25 02:27:16;;;;;;;23.45;2.65;;;;;;;;;;4981011;28;20030;-58
2023/04/25 02:29:42;;;;;;;13.07;2.10;;;;;;;;;;4984554;28;20034;-58
2023/04/25 02:32:08;;;;;;;14.73;2.10;;;;;;;;;;4974994;28;20038;-59
2023/04/25 02:34:35;;;;;;;18.75;2.17;;;;;;;;;;4984255;28;20066;-62
2023/04/25 02:37:01;;;;;;;19.27;2.25;;;;;;;;;;4983945;28;20041;-59
2023/04/25 02:39:27;;;;;;;14.50;2.72;;;;;;;;;;4974204;28;20057;-59
2023/04/25 02:41:53;;;;;;;14.60;2.15;;;;;;;;;;4983997;28;20479;-58
2023/04/25 02:44:19;;;;;;;17.08;2.50;;;;;;;;;;4984202;28;20038;-59
2023/04/25 02:46:45;;;;;;;8.93;1.80;;;;;;;;;;4977541;28;20051;-58
2023/04/25 02:49:12;;;;;;;17.98;2.15;;;;;;;;;;4982882;28;20058;-59
2023/04/25 02:51:38;;;;;;;17.88;2.72;;;;;;;;;;4980916;28;20054;-59
2023/04/25 02:54:04;;;;;;;15.93;2.72;;;;;;;;;;4965755;28;20515;-58
2023/04/25 02:56:30;;;;;;;14.63;2.78;;;;;;;;;;4977858;28;20038;-59
2023/04/25 02:58:56;;;;;;;19.75;1.90;;;;;;;;;;4971521;28;20454;-58
2023/04/25 03:01:22;;;;;;;19.33;2.10;;;;;;;;;;4982958;28;20050;-58
2023/04/25 03:03:48;;;;;;;12.35;1.75;;;;;;;;;;4973089;28;20046;-58
2023/04/25 03:06:15;;;;;;;13.45;2.40;;;;;;;;;;4979517;28;20051;-58
2023/04/25 03:08:41;;;;;;;15.05;2.08;;;;;;;;;;4982972;28;20503;-58
2023/04/25 03:11:07;;;;;;;16.83;1.50;;;;;;;;;;4975404;28;20062;-59
2023/04/25 03:13:33;;;;;;;13.20;1.70;;;;;;;;;;4983791;28;20034;-59
2023/04/25 03:15:59;;;;;;;13.70;1.50;;;;;;;;;;4982741;28;20077;-59
2023/04/25 03:18:26;;;;;;;14.00;1.75;;;;;;;;;;4978926;28;20038;-59
2023/04/25 03:20:52;;;;;;;20.35;1.95;;;;;;;;;;4981954;28;20082;-60
2023/04/25 03:23:18;;;;;;;13.20;1.67;;;;;;;;;;4962680;28;20851;-60
2023/04/25 03:25:44;;;;;;;10.57;1.60;;;;;;;;;;4977087;28;20100;-59
2023/04/25 03:28:10;;;;;;;7.82;1.85;;;;;;;;;;4979171;28;20042;-59
2023/04/25 03:30:36;;;;;;;9.70;2.17;;;;;;;;;;4978844;28;20046;-60
2023/04/25 03:33:02;;;;;;;6.32;1.35;;;;;;;;;;4976287;28;20062;-59
2023/04/25 03:35:28;;;;;;;9.32;1.52;;;;;;;;;;4979210;28;20046;-59
2023/04/25 03:37:54;;;;;;;6.40;1.13;;;;;;;;;;4982894;28;20091;-59
2023/04/25 03:40:20;;;;;;;9.10;2.28;;;;;;;;;;4975763;28;20055;-59
2023/04/25 03:42:46;;;;;;;11.35;1.40;;;;;;;;;;4982765;28;20298;-58
2023/04/25 03:45:13;;;;;;;4.20;0.90;;;;;;;;;;4962141;28;20050;-58
2023/04/25 03:47:39;;;;;;;6.70;0.68;;;;;;;;;;4978584;28;20856;-59
2023/04/25 03:50:05;;;;;;;9.50;1.25;;;;;;;;;;4983482;28;20132;-59
2023/04/25 03:52:31;;;;;;;7.85;0.95;;;;;;;;;;4956279;28;20043;-59
2023/04/25 03:54:57;;;;;;;16.08;1.52;;;;;;;;;;4983079;28;20559;-58
2023/04/25 03:57:23;;;;;;;10.77;1.10;;;;;;;;;;4983746;28;20053;-59
2023/04/25 03:59:50;;;;;;;7.70;1.10;;;;;;;;;;4972649;28;20034;-59
2023/04/25 04:02:16;;;;;;;8.38;2.58;;;;;;;;;;4977261;28;20505;-58
2023/04/25 04:04:43;;;;;;;6.18;0.93;;;;;;;;;;4982624;28;20061;-59
2023/04/25 04:07:10;;;;;;;10.10;1.20;;;;;;;;;;4982524;28;20077;-59
2023/04/25 04:09:36;;;;;;;10.02;0.95;;;;;;;;;;4982881;28;20053;-59
2023/04/25 04:12:02;;;;;;;7.47;1.15;;;;;;;;;;4977753;28;20043;-59
2023/04/25 04:14:28;;;;;;;6.72;0.70;;;;;;;;;;4974951;28;20074;-60
2023/04/25 04:16:54;;;;;;;5.20;1.42;;;;;;;;;;4982539;28;20112;-59
2023/04/25 04:19:21;;;;;;;3.88;0.80;;;;;;;;;;4977369;28;20153;-59
2023/04/25 04:21:47;;;;;;;7.65;0.77;;;;;;;;;;4960560;28;20046;-58
2023/04/25 04:24:13;;;;;;;5.68;0.80;;;;;;;;;;4979343;28;20077;-58
2023/04/25 04:26:39;;;;;;;5.50;1.20;;;;;;;;;;4982365;28;20600;-59
2023/04/25 04:29:06;;;;;;;10.57;1.27;;;;;;;;;;4985321;28;20488;-58
2023/04/25 04:31:32;;;;;;;6.15;1.48;;;;;;;;;;4979682;28;20050;-58
2023/04/25 04:33:59;;;;;;;5.30;1.17;;;;;;;;;;4972747;28;20484;-58
2023/04/25 04:36:26;;;;;;;6.20;1.05;;;;;;;;;;4969626;28;20146;-60
2023/04/25 04:38:52;;;;;;;8.10;1.45;;;;;;;;;;4975303;28;20044;-61
2023/04/25 04:41:19;;;;;;;7.82;1.08;;;;;;;;;;4972218;28;20042;-60
2023/04/25 04:43:45;;;;;;;7.53;1.63;;;;;;;;;;4971417;28;20412;-58
2023/04/25 04:46:12;;;;;;;4.60;0.85;;;;;;;;;;4973860;28;20613;-59
2023/04/25 04:48:39;;;;;;;5.43;0.90;;;;;;;;;;4972082;28;20097;-58
2023/04/25 04:51:06;;;;;;;5.65;1.02;;;;;;;;;;4974269;28;20042;-59
2023/04/25 04:53:32;;;;;;;6.30;1.63;;;;;;;;;;4971490;28;20057;-59
2023/04/25 04:55:59;;;;;;;7.25;0.88;;;;;;;;;;4976931;28;20081;-60
2023/04/25 04:58:25;;;;;;;5.32;1.40;;;;;;;;;;4976079;28;20166;-59
2023/04/25 05:00:51;;;;;;;3.78;0.82;;;;;;;;;;4973284;28;20042;-59
2023/04/25 05:03:17;;;;;;;4.68;0.80;;;;;;;;;;4976063;28;20105;-59
2023/04/25 05:05:43;;;;;;;13.20;1.67;;;;;;;;;;4981854;28;20138;-59
2023/04/25 05:08:09;;;;;;;6.45;1.08;;;;;;;;;;4981803;28;20097;-59
2023/04/25 05:10:35;;;;;;;8.43;1.10;;;;;;;;;;4985563;28;20096;-60
2023/04/25 05:13:02;;;;;;;8.88;1.55;;;;;;;;;;4978066;28;20481;-59
2023/04/25 05:15:28;;;;;;;7.55;1.13;;;;;;;;;;4951195;28;20057;-60
2023/04/25 05:17:54;;;;;;;4.25;1.10;;;;;;;;;;4968546;28;20082;-59
2023/04/25 05:20:20;;;;;;;10.30;1.30;;;;;;;;;;4976393;28;20450;-59
2023/04/25 05:22:46;;;;;;;13.43;1.33;;;;;;;;;;4985086;28;20056;-58
2023/04/25 05:25:12;;;;;;;12.32;1.02;;;;;;;;;;4976477;28;20873;-59
2023/04/25 05:27:38;;;;;;;4.65;1.15;;;;;;;;;;4975680;28;20042;-58
2023/04/25 05:30:05;;;;;;;13.90;1.70;;;;;;;;;;4985269;28;20516;-59
2023/04/25 05:32:31;;;;;;;5.85;1.17;;;;;;;;;;4982952;28;20055;-59
2023/04/25 05:34:57;;;;;;;15.45;2.33;;;;;;;;;;4977700;28;20049;-60
2023/04/25 05:37:23;;;;;;;13.05;1.77;;;;;;;;;;4984124;28;20038;-59
2023/04/25 05:39:49;;;;;;;11.45;1.90;;;;;;;;;;4977219;28;20078;-58
2023/04/25 05:42:16;;;;;;;8.45;1.23;;;;;;;;;;4972548;28;20034;-59
2023/04/25 05:44:42;;;;;;;5.60;1.20;;;;;;;;;;4985603;28;20038;-59
2023/04/25 05:47:08;;;;;;;12.20;1.38;;;;;;;;;;4972834;28;20097;-59
2023/04/25 05:49:35;;;;;;;11.32;1.45;;;;;;;;;;4985691;28;20403;-59
2023/04/25 05:52:01;;;;;;;9.45;1.48;;;;;;;;;;4981232;28;20069;-60
2023/04/25 05:54:27;;;;;;;18.60;2.83;;;;;;;;;;4985123;28;20034;-59
2023/04/25 05:56:53;;;;;;;13.00;2.20;;;;;;;;;;4967760;28;20475;-59
2023/04/25 05:59:19;;;;;;;13.40;2.03;;;;;;;;;;4981321;28;20042;-58
2023/04/25 06:01:46;;;;;;;12.05;1.58;;;;;;;;;;4980463;28;20500;-58
2023/04/25 06:04:12;;;;;;;8.73;1.42;;;;;;;;;;4971697;28;20070;-59
2023/04/25 06:06:38;;;;;;;11.65;1.60;;;;;;;;;;4963716;28;20062;-60
2023/04/25 06:09:05;;;;;;;9.32;1.40;;;;;;;;;;4985095;28;20305;-58
2023/04/25 06:11:31;;;;;;;6.55;1.30;;;;;;;;;;4983813;28;20050;-59
2023/04/25 06:13:57;;;;;;;11.45;1.80;;;;;;;;;;4983896;28;20089;-59
2023/04/25 06:16:25;;;;;;;8.98;1.50;;;;;;;;;;4985154;28;20042;-58
2023/04/25 06:18:51;;;;;;;9.93;1.10;;;;;;;;;;4975115;28;20119;-59
2023/04/25 06:21:17;;;;;;;8.13;1.10;;;;;;;;;;4984009;28;21039;-60
2023/04/25 06:23:43;;;;;;;13.88;1.55;;;;;;;;;;4984096;28;20054;-59
2023/04/25 06:26:10;;;;;;;13.00;1.55;;;;;;;;;;4981381;28;20049;-59
2023/04/25 06:28:36;;;;;;;15.95;1.60;;;;;;;;;;4975589;28;20085;-59
2023/04/25 06:31:02;;;;;;;9.50;1.42;;;;;;;;;;4978489;28;20043;-59
2023/04/25 06:33:28;;;;;;;9.77;1.60;;;;;;;;;;4971457;28;20142;-62
2023/04/25 06:35:54;;;;;;;7.60;1.63;;;;;;;;;;4975001;28;20058;-59
2023/04/25 06:38:21;;;;;;;4.65;1.17;;;;;;;;;;4978311;28;20027;-59
2023/04/25 06:40:47;;;;;;;12.45;1.17;;;;;;;;;;4974594;28;20043;-60
2023/04/25 06:43:13;;;;;;;6.82;1.00;;;;;;;;;;4973426;28;20492;-60
2023/04/25 06:45:40;;;;;;;18.40;1.98;;;;;;;;;;4981607;28;20042;-59
2023/04/25 06:48:06;;;;;;;5.95;1.00;;;;;;;;;;4972666;28;20501;-59
2023/04/25 06:50:32;;;;;;;12.32;1.45;;;;;;;;;;4971727;28;20086;-60
2023/04/25 06:52:58;;;;;;;10.00;1.92;;;;;;;;;;4976856;28;20054;-62
2023/04/25 06:55:24;;;;;;;8.30;1.00;;;;;;;;;;4977193;28;20797;-59
2023/04/25 06:57:50;;;;;;;12.15;0.77;;;;;;;;;;4971352;28;20117;-60
2023/04/25 07:00:17;;;;;;;7.32;0.98;;;;;;;;;;4972156;28;20045;-59
2023/04/25 07:02:43;;;;;;;9.32;1.00;;;;;;;;;;4967360;28;20785;-59
2023/04/25 07:05:09;;;;;;;10.35;1.10;;;;;;;;;;4978176;28;20117;-59
2023/04/25 07:07:35;;;;;;;14.00;3.45;;;;;;;;;;4982925;28;20412;-60
2023/04/25 07:10:01;;;;;;;9.98;1.48;;;;;;;;;;4982854;28;20046;-60
2023/04/25 07:12:28;;;;;;;9.13;1.20;;;;;;;;;;4978580;28;20034;-59
2023/04/25 07:14:54;;;;;;;16.98;3.25;;;;;;;;;;4983242;28;20518;-59
2023/04/25 07:17:20;;;;;;;10.38;1.67;;;;;;;;;;4984004;28;20125;-59
2023/04/25 07:19:46;;;;;;;5.65;0.82;;;;;;;;;;4977244;28;20053;-59
2023/04/25 07:22:12;;;;;;;5.10;0.82;;;;;;;;;;4974032;28;20038;-59
2023/04/25 07:24:38;;;;;;;10.57;0.80;;;;;;;;;;4979446;28;20094;-60
2023/04/25 07:27:04;;;;;;;7.78;1.00;;;;;;;;;;4980269;28;20053;-59
2023/04/25 07:29:31;;;;;;;8.45;1.02;;;;;;;;;;4983018;28;20043;-59
2023/04/25 07:31:57;;;;;;;11.93;1.05;;;;;;;;;;4975295;28;20082;-60
2023/04/25 07:34:23;;;;;;;7.05;1.10;;;;;;;;;;4983933;28;20042;-59
2023/04/25 07:36:50;;;;;;;5.07;1.13;;;;;;;;;;4982276;28;20047;-60
2023/04/25 07:39:16;;;;;;;5.57;1.02;;;;;;;;;;4974703;28;20078;-59
2023/04/25 07:41:42;;;;;;;5.78;1.20;;;;;;;;;;4981851;28;20140;-60
2023/04/25 07:44:09;;;;;;;6.32;1.08;;;;;;;;;;4972071;28;20049;-60
2023/04/25 07:46:35;;;;;;;8.45;1.23;;;;;;;;;;4979728;28;20455;-61
2023/04/25 07:49:02;;;;;;;5.07;0.90;;;;;;;;;;4981613;28;20042;-60
2023/04/25 07:51:28;;;;;;;8.00;0.88;;;;;;;;;;4977652;28;20578;-61
2023/04/25 07:53:54;;;;;;;7.10;0.90;;;;;;;;;;4977599;28;20046;-59
2023/04/25 07:56:21;;;;;;;4.00;0.88;;;;;;;;;;4983343;28;20115;-59
2023/04/25 07:58:47;;;;;;;6.45;0.80;;;;;;;;;;4973299;28;20799;-59
2023/04/25 08:01:13;;;;;;;11.23;0.90;;;;;;;;;;4972573;28;20034;-59
2023/04/25 08:03:39;;;;;;;9.43;0.80;;;;;;;;;;4984301;28;20044;-60
2023/04/25 08:06:06;;;;;;;7.40;0.85;;;;;;;;;;4985511;28;20069;-60
2023/04/25 08:08:32;;;;;;;7.13;0.50;;;;;;;;;;4986679;28;20042;-60
2023/04/25 08:10:58;;;;;;;5.20;0.50;;;;;;;;;;4987031;28;20086;-63
2023/04/25 08:13:24;;;;;;;3.33;0.70;;;;;;;;;;4984274;28;20038;-59
2023/04/25 08:15:50;;;;;;;3.95;1.10;;;;;;;;;;4986472;28;20081;-60
2023/04/25 08:18:16;;;;;;;9.82;1.05;;;;;;;;;;4982448;28;20055;-60
2023/04/25 08:20:42;;;;;;;7.35;0.88;;;;;;;;;;4984642;28;20452;-60
2023/04/25 08:23:10;;;;;;;5.03;0.90;;;;;;;;;;4983368;28;20077;-60
2023/04/25 08:25:36;;;;;;;8.73;1.67;;;;;;;;;;4981035;28;20042;-60
2023/04/25 08:28:02;;;;;;;5.93;0.88;;;;;;;;;;4986485;28;20049;-60
2023/04/25 08:30:29;;;;;;;2.80;0.82;;;;;;;;;;4977924;28;20065;-60
2023/04/25 08:32:55;;;;;;;5.32;0.60;;;;;;;;;;4986300;28;20456;-60
2023/04/25 08:35:21;;;;;;;6.65;1.00;;;;;;;;;;4985410;28;20095;-60
2023/04/25 08:37:49;;;;;;;6.55;0.80;;;;;;;;;;4986272;28;20707;-59
2023/04/25 08:40:15;;;;;;;7.10;0.98;;;;;;;;;;4963842;28;20101;-60
2023/04/25 08:42:42;;;;;;;5.55;1.00;;;;;;;;;;4985818;28;20086;-60
2023/04/25 08:45:09;;;;;;;6.57;0.80;;;;;;;;;;4981104;28;20051;-59
2023/04/25 08:47:35;;;;;;;4.88;0.68;;;;;;;;;;4975438;28;20042;-63
2023/04/25 08:50:03;;;;;;;5.50;0.70;;;;;;;;;;4985505;28;20046;-59
2023/04/25 08:52:31;;;;;;;11.55;0.88;;;;;;;;;;4977021;28;20043;-60
2023/04/25 08:54:57;;;;;;;3.53;0.52;;;;;;;;;;4986786;28;20051;-59
2023/04/25 08:57:24;;;;;;;9.63;0.90;;;;;;;;;;4986276;28;20045;-59
2023/04/25 08:59:50;;;;;;;8.35;0.93;;;;;;;;;;4976318;28;20077;-60
2023/04/25 09:02:19;;;;;;;12.10;0.75;;;;;;;;;;4978477;28;20074;-59
2023/04/25 09:04:45;;;;;;;9.80;1.00;;;;;;;;;;4978550;28;20059;-59
2023/04/25 09:07:12;;;;;;;6.97;0.68;;;;;;;;;;4985279;28;20052;-60
2023/04/25 09:09:39;;;;;;;6.43;0.73;;;;;;;;;;4985581;28;20046;-60
2023/04/25 09:12:05;;;;;;;5.10;0.52;;;;;;;;;;4983906;28;20046;-60
2023/04/25 09:14:31;;;;;;;4.00;0.40;;;;;;;;;;4984776;28;20034;-60
2023/04/25 09:16:59;;;;;;;3.63;0.65;;;;;;;;;;4966860;28;20460;-59
2023/04/25 09:19:26;;;;;;;5.78;0.70;;;;;;;;;;4982382;28;20046;-59
2023/04/25 09:21:56;;;;;;;4.10;0.68;;;;;;;;;;4967245;28;20121;-59
2023/04/25 09:24:38;;;;;;;8.43;0.80;;;;;;;;;;4982354;28;20034;-60
2023/04/25 09:27:05;;;;;;;5.47;0.70;;;;;;;;;;4983319;28;20133;-60
2023/04/25 09:29:32;;;;;;;7.55;0.68;;;;;;;;;;4985916;28;20042;-60
2023/04/25 09:32:11;;;;;;;5.70;0.65;;;;;;;;;;4980279;28;20078;-60
2023/04/25 09:34:44;;;;;;;5.25;0.90;;;;;;;;;;4983852;28;20092;-60
2023/04/25 09:37:11;;;;;;;5.15;1.15;;;;;;;;;;4984578;28;20054;-60
2023/04/25 09:39:37;;;;;;;3.92;0.68;;;;;;;;;;4980183;28;20053;-60
2023/04/25 09:42:04;;;;;;;10.05;0.80;;;;;;;;;;4985315;28;20392;-60
2023/04/25 09:44:30;;;;;;;6.13;0.55;;;;;;;;;;4985294;28;20049;-60
2023/04/25 09:46:57;;;;;;;4.65;0.65;;;;;;;;;;4978869;28;20455;-59
2023/04/25 09:49:23;;;;;;;7.70;0.68;;;;;;;;;;4985356;28;20050;-59
2023/04/25 09:52:00;;;;;;;11.65;1.77;;;;;;;;;;4980636;28;20501;-60
2023/04/25 09:54:26;;;;;;;5.95;0.88;;;;;;;;;;4983612;28;20046;-60
2023/04/25 09:56:53;;;;;;;4.85;0.70;;;;;;;;;;4985018;28;20042;-59
2023/04/25 09:59:22;;;;;;;4.32;0.73;;;;;;;;;;4977418;28;20499;-59
2023/04/25 10:01:50;;;;;;;3.40;0.55;;;;;;;;;;4982535;28;20108;-59
2023/04/25 10:04:20;;;;;;;4.00;0.70;;;;;;;;;;4976612;28;20059;-58
2023/04/25 10:06:49;;;;;;;3.67;0.60;;;;;;;;;;4971823;28;20520;-58
2023/04/25 10:09:15;;;;;;;7.57;0.60;;;;;;;;;;4967994;28;20126;-58
2023/04/25 10:11:41;;;;;;;8.90;0.98;;;;;;;;;;4982835;28;20096;-58
2023/04/25 10:14:08;;;;;;;8.50;0.75;;;;;;;;;;4976707;28;20050;-59
2023/04/25 10:16:34;;;;;;;2.30;0.70;;;;;;;;;;4984563;28;20046;-59
2023/04/25 10:19:00;;;;;;;4.50;0.90;;;;;;;;;;4981859;28;20784;-59
2023/04/25 10:21:28;;;;;;;5.80;0.82;;;;;;;;;;4978420;28;20485;-58
2023/04/25 10:23:55;;;;;;;7.22;0.80;;;;;;;;;;4984580;28;20077;-58
2023/04/25 10:26:21;;;;;;;6.72;1.00;;;;;;;;;;4984621;28;20038;-59
2023/04/25 10:28:58;;;;;;;6.68;1.00;;;;;;;;;;4964799;28;20571;-59
2023/04/25 10:31:24;;;;;;;5.40;0.82;;;;;;;;;;4962605;28;20516;-58
2023/04/25 10:36:22;;;;;;;6.57;1.00;;;;;;;;;;4983452;28;20433;-59
2023/04/25 10:38:50;;;;;;;11.25;1.42;;;;;;;;;;4984152;28;20590;-60
2023/04/25 10:41:18;;;;;;;7.43;1.25;;;;;;;;;;4975996;28;20046;-58
2023/04/25 10:43:46;;;;;;;11.60;1.45;;;;;;;;;;4984138;28;20047;-58
2023/04/25 10:46:13;;;;;;;6.70;0.90;;;;;;;;;;4984230;28;20046;-59
2023/04/25 10:48:45;;;;;;;4.45;1.10;;;;;;;;;;4981269;28;20039;-59
2023/04/25 10:51:12;;;;;;;5.38;0.90;;;;;;;;;;4982892;28;20042;-59
2023/04/25 10:53:38;;;;;;;7.88;0.98;;;;;;;;;;4983107;28;20042;-59
2023/04/25 10:56:12;;;;;;;7.75;1.10;;;;;;;;;;4981790;28;20448;-59
2023/04/25 10:58:42;;;;;;;8.70;1.25;;;;;;;;;;4978820;28;20598;-59
2023/04/25 11:01:08;;;;;;;6.03;0.98;;;;;;;;;;4977270;28;20042;-58
2023/04/25 11:03:39;;;;;;;8.30;0.70;;;;;;;;;;4983265;28;20045;-61
2023/04/25 11:06:06;;;;;;;14.25;1.40;;;;;;;;;;4982805;28;20141;-59
2023/04/25 11:08:45;;;;;;;5.07;0.93;;;;;;;;;;4958308;28;20046;-59
2023/04/25 11:11:12;;;;;;;4.88;0.73;;;;;;;;;;4978831;28;20070;-59
2023/04/25 11:13:38;;;;;;;8.13;0.77;;;;;;;;;;4981473;28;20113;-59
2023/04/25 11:16:07;;;;;;;7.13;1.00;;;;;;;;;;4978407;28;20038;-58
2023/04/25 11:18:34;;;;;;;6.53;0.80;;;;;;;;;;4982260;28;20046;-61
2023/04/25 11:21:00;;;;;;;4.32;0.55;;;;;;;;;;4979872;28;20043;-61
2023/04/25 11:23:27;;;;;;;5.75;0.50;;;;;;;;;;4962685;28;20073;-60
2023/04/25 11:25:53;;;;;;;4.05;0.50;;;;;;;;;;4981127;28;20412;-60
2023/04/25 11:28:23;;;;;;;3.70;0.75;;;;;;;;;;4982647;28;20046;-60
2023/04/25 11:30:51;;;;;;;3.47;0.63;;;;;;;;;;4977677;28;20059;-60
2023/04/25 11:33:17;;;;;;;4.28;0.57;;;;;;;;;;4983689;28;20082;-59
2023/04/25 11:35:44;;;;;;;3.60;0.40;;;;;;;;;;4969307;28;20131;-60
2023/04/25 11:38:10;;;;;;;6.75;0.80;;;;;;;;;;4977372;28;20311;-60
2023/04/25 11:40:36;;;;;;;5.25;1.25;;;;;;;;;;4971716;28;20515;-60
2023/04/25 11:43:02;;;;;;;5.05;0.55;;;;;;;;;;4976702;28;20083;-60
2023/04/25 11:45:30;;;;;;;10.35;0.80;;;;;;;;;;4980968;28;20117;-61
2023/04/25 11:47:57;;;;;;;4.10;1.00;;;;;;;;;;4972681;28;20038;-60
2023/04/25 11:50:23;;;;;;;9.25;0.70;;;;;;;;;;4978916;28;20046;-60
2023/04/25 11:52:50;;;;;;;6.47;1.38;;;;;;;;;;4979168;28;20098;-61
2023/04/25 11:55:17;;;;;;;4.95;0.60;;;;;;;;;;4982499;28;20065;-60
2023/04/25 11:57:43;;;;;;;4.82;0.70;;;;;;;;;;4983651;28;20658;-61
2023/04/25 12:00:16;;;;;;;3.67;0.70;;;;;;;;;;4965684;28;20522;-61
2023/04/25 12:02:44;;;;;;;1.88;0.50;;;;;;;;;;4980644;28;20124;-59
2023/04/25 12:05:11;;;;;;;3.45;0.52;;;;;;;;;;4983284;28;20133;-61
2023/04/25 12:07:38;;;;;;;3.42;0.60;;;;;;;;;;4983123;28;20082;-60
2023/04/25 12:10:07;;;;;;;6.80;0.77;;;;;;;;;;4979549;28;20100;-59
2023/04/25 12:12:34;;;;;;;2.60;0.60;;;;;;;;;;4984532;28;20042;-59
2023/04/25 12:15:10;;;;;;;3.90;0.70;;;;;;;;;;4984447;28;20589;-59
2023/04/25 12:17:37;;;;;;;7.13;0.70;;;;;;;;;;4966984;28;20546;-59
2023/04/25 12:20:09;;;;;;;4.15;1.17;;;;;;;;;;4983630;28;20507;-59
2023/04/25 12:22:36;;;;;;;7.03;0.70;;;;;;;;;;4981122;28;20077;-62
2023/04/25 12:25:04;;;;;;;6.53;0.75;;;;;;;;;;4984408;28;20740;-60
2023/04/25 12:27:31;;;;;;;5.47;0.90;;;;;;;;;;4984548;28;20070;-60
2023/04/25 12:29:58;;;;;;;4.60;0.90;;;;;;;;;;4984636;28;20047;-59
2023/04/25 12:32:26;;;;;;;4.63;1.17;;;;;;;;;;4984395;28;20495;-60
2023/04/25 12:34:52;;;;;;;8.40;1.30;;;;;;;;;;4983504;28;20042;-59
2023/04/25 12:37:19;;;;;;;4.68;0.82;;;;;;;;;;4983378;28;20050;-59
2023/04/25 12:39:45;;;;;;;3.40;0.82;;;;;;;;;;4982535;28;20042;-60
2023/04/25 12:42:12;;;;;;;7.55;1.10;;;;;;;;;;4983872;28;20061;-59
2023/04/25 12:44:38;;;;;;;5.30;0.93;;;;;;;;;;4984216;28;20097;-59
2023/04/25 12:47:05;;;;;;;5.18;0.90;;;;;;;;;;4983725;28;20042;-58
2023/04/25 12:49:31;;;;;;;9.05;0.93;;;;;;;;;;4974996;28;20109;-58
2023/04/25 12:51:57;;;;;;;8.98;1.88;;;;;;;;;;4987797;28;20527;-58
2023/04/25 12:54:25;;;;;;;7.70;0.82;;;;;;;;;;4987150;28;20078;-58
2023/04/25 12:56:51;;;;;;;5.30;0.95;;;;;;;;;;4982050;28;20054;-57
2023/04/25 12:59:18;;;;;;;6.47;0.80;;;;;;;;;;4987433;28;20125;-58
2023/04/25 13:01:45;;;;;;;6.30;0.82;;;;;;;;;;4983604;28;20057;-58
2023/04/25 13:04:11;;;;;;;7.13;0.82;;;;;;;;;;4987114;28;20054;-58
2023/04/25 13:06:37;;;;;;;8.60;0.70;;;;;;;;;;4986162;28;20132;-58
2023/04/25 13:09:04;;;;;;;5.20;0.85;;;;;;;;;;4987346;28;20093;-58
2023/04/25 13:11:31;;;;;;;2.28;0.52;;;;;;;;;;4987480;28;20046;-58
2023/04/25 13:13:57;;;;;;;5.97;1.15;;;;;;;;;;4987117;28;20053;-58
2023/04/25 13:16:23;;;;;;;4.05;0.68;;;;;;;;;;4987262;28;21072;-58
2023/04/25 13:18:49;;;;;;;5.25;0.63;;;;;;;;;;4978845;28;20065;-58
2023/04/25 13:21:15;;;;;;;7.88;0.88;;;;;;;;;;4976484;28;20038;-57
2023/04/25 13:23:44;;;;;;;6.97;0.95;;;;;;;;;;4978304;28;20062;-58
2023/04/25 13:26:10;;;;;;;;;;;;;;;;;;4984458;28;20492;-58
2023/04/25 13:28:36;;;;;;;4.13;0.60;;;;;;;;;;4984232;28;19972;-59
2023/04/25 13:31:02;;;;;;;8.40;0.73;;;;;;;;;;4985461;28;20500;-58
2023/04/25 13:33:29;;;;;;;6.07;1.08;;;;;;;;;;4981903;28;20584;-58
2023/04/25 13:35:57;;;;;;;7.43;0.77;;;;;;;;;;4977195;28;20055;-58
2023/04/25 13:38:23;;;;;;;4.70;0.70;;;;;;;;;;4985271;28;20130;-58
2023/04/25 13:40:52;;;;;;;5.30;0.60;;;;;;;;;;4981589;28;20051;-58
2023/04/25 13:43:19;;;;;;;5.40;0.75;;;;;;;;;;4980691;28;20041;-59
2023/04/25 13:45:45;;;;;;;7.82;0.98;;;;;;;;;;4979966;28;20505;-58
2023/04/25 13:48:15;;;;;;;5.32;0.60;;;;;;;;;;4985443;28;20046;-58
2023/04/25 13:50:41;;;;;;;4.78;0.77;;;;;;;;;;4977966;28;20042;-59
2023/04/25 13:53:07;;;;;;;5.47;0.90;;;;;;;;;;4983193;28;20035;-58
2023/04/25 13:55:36;;;;;;;6.40;0.65;;;;;;;;;;4973796;28;20481;-59
2023/04/25 13:58:07;;;;;;;6.28;0.98;;;;;;;;;;4977023;28;20042;-59
2023/04/25 14:00:33;;;;;;;6.47;0.90;;;;;;;;;;4976602;28;20038;-59
2023/04/25 14:03:00;;;;;;;3.50;0.77;;;;;;;;;;4975622;28;20097;-60
2023/04/25 14:05:26;;;;;;;3.83;0.55;;;;;;;;;;4980333;28;20109;-59
2023/04/25 14:07:52;;;;;;;2.92;0.57;;;;;;;;;;4984924;28;20145;-59
2023/04/25 14:10:18;;;;;;;4.70;1.25;;;;;;;;;;4984295;28;20125;-59
2023/04/25 14:12:44;;;;;;;4.63;0.65;;;;;;;;;;4980949;28;20081;-60
2023/04/25 14:15:10;;;;;;;9.25;1.00;;;;;;;;;;4978921;28;20601;-60
2023/04/25 14:17:37;;;;;;;5.10;0.70;;;;;;;;;;4982696;28;20042;-60
2023/04/25 14:20:05;;;;;;;8.93;1.00;;;;;;;;;;4974503;28;20124;-60
2023/04/25 14:22:31;;;;;;;4.18;0.80;;;;;;;;;;4975969;28;20428;-60
2023/04/25 14:24:57;;;;;;;6.95;1.15;;;;;;;;;;4974988;28;20098;-60
2023/04/25 14:27:24;;;;;;;4.80;0.80;;;;;;;;;;4977551;28;20108;-60
2023/04/25 14:29:50;;;;;;;4.38;1.10;;;;;;;;;;4975550;28;20046;-60
2023/04/25 14:32:17;;;;;;;2.65;1.00;;;;;;;;;;4975298;28;20038;-59
2023/04/25 14:34:43;;;;;;;7.40;1.00;;;;;;;;;;4973192;28;20144;-60
2023/04/25 14:37:09;;;;;;;6.60;0.93;;;;;;;;;;4977275;28;20133;-59